createdAt,value
2017-05-28T00:00:01.539Z,8.56
2017-05-28T00:02:29.034Z,8.22
2017-05-28T00:04:57.298Z,8.32
2017-05-28T00:07:25.611Z,8.38
2017-05-28T00:09:53.886Z,8.52
2017-05-28T00:12:22.151Z,8.56
2017-05-28T00:14:50.411Z,8.20
2017-05-28T00:17:18.659Z,8.08
2017-05-28T00:19:46.963Z,8.74
2017-05-28T00:22:15.211Z,8.82
2017-05-28T00:24:43.514Z,8.32
2017-05-28T00:27:11.787Z,9.82
2017-05-28T00:29:40.035Z,8.48
2017-05-28T00:32:08.315Z,8.94
2017-05-28T00:34:36.576Z,9.16
2017-05-28T00:37:04.082Z,8.52
2017-05-28T00:39:32.338Z,8.90
2017-05-28T00:41:59.843Z,8.74
2017-05-28T00:44:28.108Z,8.74
2017-05-28T00:46:56.382Z,9.14
2017-05-28T00:49:23.878Z,9.38
2017-05-28T00:51:52.159Z,10.46
2017-05-28T00:54:20.423Z,9.92
2017-05-28T00:56:48.708Z,8.78
2017-05-28T00:59:16.955Z,9.40
2017-05-28T01:01:45.209Z,9.58
2017-05-28T01:04:13.479Z,9.02
2017-05-28T01:06:41.755Z,10.86
2017-05-28T01:09:10.022Z,10.00
2017-05-28T01:11:38.292Z,10.02
2017-05-28T01:14:06.563Z,9.96
2017-05-28T01:16:34.822Z,10.32
2017-05-28T01:19:03.111Z,10.90
2017-05-28T01:21:31.383Z,10.08
2017-05-28T01:23:59.653Z,9.72
2017-05-28T01:26:27.927Z,10.02
2017-05-28T01:28:56.194Z,9.34
2017-05-28T01:31:23.715Z,9.16
2017-05-28T01:33:51.999Z,9.72
2017-05-28T01:36:20.281Z,9.08
2017-05-28T01:38:48.534Z,9.78
2017-05-28T01:41:16.831Z,8.98
2017-05-28T01:43:45.103Z,9.16
2017-05-28T01:46:13.387Z,9.90
2017-05-28T01:48:41.648Z,9.64
2017-05-28T01:51:09.927Z,10.00
2017-05-28T01:53:38.189Z,9.02
2017-05-28T01:56:06.458Z,9.20
2017-05-28T01:58:34.725Z,8.62
2017-05-28T02:01:03.002Z,8.84
2017-05-28T02:03:31.254Z,9.02
2017-05-28T02:05:59.530Z,9.38
2017-05-28T02:08:27.794Z,9.60
2017-05-28T02:10:56.087Z,9.00
2017-05-28T02:13:24.364Z,9.92
2017-05-28T02:15:52.644Z,8.70
2017-05-28T02:18:20.899Z,8.68
2017-05-28T02:20:49.160Z,9.58
2017-05-28T02:23:17.439Z,9.62
2017-05-28T02:25:45.711Z,9.88
2017-05-28T02:28:13.999Z,10.04
2017-05-28T02:30:42.281Z,9.02
2017-05-28T02:33:09.781Z,9.16
2017-05-28T02:35:38.032Z,9.70
2017-05-28T02:38:06.301Z,9.00
2017-05-28T02:40:33.788Z,9.58
2017-05-28T02:43:02.072Z,9.20
2017-05-28T02:45:30.343Z,9.12
2017-05-28T02:47:58.623Z,8.50
2017-05-28T02:50:26.880Z,9.12
2017-05-28T02:52:55.156Z,9.68
2017-05-28T02:55:23.432Z,8.84
2017-05-28T02:57:50.947Z,9.90
2017-05-28T03:00:18.451Z,9.52
2017-05-28T03:02:46.736Z,9.54
2017-05-28T03:05:14.991Z,9.14
2017-05-28T03:07:43.345Z,10.66
2017-05-28T03:10:11.627Z,9.80
2017-05-28T03:12:39.888Z,9.72
2017-05-28T03:15:08.163Z,9.88
2017-05-28T03:17:36.419Z,10.22
2017-05-28T03:20:04.710Z,10.90
2017-05-28T03:22:32.971Z,9.48
2017-05-28T03:25:01.250Z,10.44
2017-05-28T03:27:29.513Z,11.08
2017-05-28T03:29:57.784Z,10.00
2017-05-28T03:32:26.045Z,10.78
2017-05-28T03:34:54.325Z,10.50
2017-05-28T03:37:22.580Z,10.04
2017-05-28T03:39:50.860Z,10.38
2017-05-28T03:42:19.120Z,9.34
2017-05-28T03:44:47.402Z,9.92
2017-05-28T03:47:15.661Z,8.78
2017-05-28T03:49:43.929Z,9.80
2017-05-28T03:52:12.200Z,10.80
2017-05-28T03:54:40.479Z,9.76
2017-05-28T03:57:08.728Z,9.42
2017-05-28T03:59:37.015Z,9.84
2017-05-28T04:02:05.278Z,10.02
2017-05-28T04:04:33.556Z,10.76
2017-05-28T04:07:01.831Z,10.76
2017-05-28T04:09:30.105Z,10.56
2017-05-28T04:11:59.144Z,9.76
2017-05-28T04:14:27.403Z,10.14
2017-05-28T04:16:55.677Z,9.84
2017-05-28T04:19:23.945Z,9.92
2017-05-28T04:21:51.455Z,9.68
2017-05-28T04:24:19.708Z,9.60
2017-05-28T04:26:47.997Z,9.82
2017-05-28T04:29:16.258Z,10.96
2017-05-28T04:31:44.538Z,9.58
2017-05-28T04:34:12.814Z,10.00
2017-05-28T04:36:41.527Z,10.26
2017-05-28T04:39:09.835Z,9.16
2017-05-28T04:41:38.110Z,9.84
2017-05-28T04:44:06.366Z,9.84
2017-05-28T04:46:34.643Z,9.66
2017-05-28T04:49:02.903Z,9.96
2017-05-28T04:51:31.179Z,10.58
2017-05-28T04:53:59.438Z,9.02
2017-05-28T04:56:27.715Z,10.42
2017-05-28T04:58:55.979Z,10.56
2017-05-28T05:01:24.254Z,8.84
2017-05-28T05:03:52.519Z,9.62
2017-05-28T05:06:20.823Z,8.64
2017-05-28T05:08:49.079Z,8.54
2017-05-28T05:11:17.362Z,9.10
2017-05-28T05:13:45.624Z,8.78
2017-05-28T05:16:13.910Z,8.56
2017-05-28T05:18:42.164Z,8.00
2017-05-28T05:21:10.439Z,7.74
2017-05-28T05:23:38.694Z,8.60
2017-05-28T05:26:06.959Z,8.64
2017-05-28T05:28:35.238Z,9.22
2017-05-28T05:31:03.502Z,9.34
2017-05-28T05:33:31.784Z,8.52
2017-05-28T05:36:00.045Z,9.06
2017-05-28T05:38:28.323Z,8.06
2017-05-28T05:40:56.574Z,8.96
2017-05-28T05:43:24.857Z,8.42
2017-05-28T05:45:53.119Z,8.48
2017-05-28T05:48:21.415Z,9.40
2017-05-28T05:50:49.671Z,8.16
2017-05-28T05:53:17.933Z,8.98
2017-05-28T05:55:46.182Z,9.00
2017-05-28T05:58:14.456Z,8.60
2017-05-28T06:00:42.721Z,7.66
2017-05-28T06:03:10.991Z,7.24
2017-05-28T06:05:39.241Z,8.26
2017-05-28T06:08:06.743Z,8.26
2017-05-28T06:10:35.007Z,8.22
2017-05-28T06:13:03.256Z,8.78
2017-05-28T06:15:31.535Z,7.70
2017-05-28T06:17:59.787Z,8.36
2017-05-28T06:20:28.240Z,8.20
2017-05-28T06:22:56.488Z,8.28
2017-05-28T06:25:24.763Z,7.22
2017-05-28T06:27:53.011Z,8.02
2017-05-28T06:30:21.288Z,9.30
2017-05-28T06:32:49.543Z,8.34
2017-05-28T06:35:17.811Z,7.78
2017-05-28T06:37:46.063Z,8.90
2017-05-28T06:40:14.338Z,7.50
2017-05-28T06:42:42.604Z,8.56
2017-05-28T06:45:10.891Z,7.92
2017-05-28T06:47:39.139Z,8.94
2017-05-28T06:50:07.398Z,8.38
2017-05-28T06:52:35.671Z,7.46
2017-05-28T06:55:03.920Z,8.84
2017-05-28T06:57:32.197Z,8.54
2017-05-28T07:00:00.466Z,7.94
2017-05-28T07:02:28.747Z,8.88
2017-05-28T07:04:57.013Z,8.82
2017-05-28T07:07:25.291Z,8.12
2017-05-28T07:09:53.544Z,8.00
2017-05-28T07:12:21.811Z,9.64
2017-05-28T07:14:50.061Z,8.80
2017-05-28T07:17:18.356Z,8.12
2017-05-28T07:19:45.843Z,7.78
2017-05-28T07:22:14.095Z,9.12
2017-05-28T07:24:42.372Z,8.70
2017-05-28T07:27:10.619Z,9.00
2017-05-28T07:29:38.122Z,8.40
2017-05-28T07:32:06.387Z,10.30
2017-05-28T07:34:34.654Z,7.62
2017-05-28T07:37:02.916Z,7.98
2017-05-28T07:39:31.187Z,8.50
2017-05-28T07:41:59.443Z,8.20
2017-05-28T07:44:26.947Z,8.20
2017-05-28T07:46:55.207Z,8.32
2017-05-28T07:49:23.472Z,7.56
2017-05-28T07:51:51.716Z,7.98
2017-05-28T07:54:19.990Z,8.26
2017-05-28T07:56:48.271Z,7.92
2017-05-28T07:59:16.531Z,8.10
2017-05-28T08:01:44.917Z,7.64
2017-05-28T08:04:13.986Z,7.42
2017-05-28T08:06:42.264Z,7.62
2017-05-28T08:09:10.519Z,7.68
2017-05-28T08:11:38.784Z,7.04
2017-05-28T08:14:07.032Z,7.28
2017-05-28T08:16:35.597Z,7.22
2017-05-28T08:19:03.853Z,8.58
2017-05-28T08:21:31.339Z,6.58
2017-05-28T08:23:59.608Z,7.44
2017-05-28T08:26:27.880Z,7.44
2017-05-28T08:28:56.158Z,7.42
2017-05-28T08:31:24.410Z,6.50
2017-05-28T08:33:52.682Z,6.02
2017-05-28T08:36:20.930Z,7.54
2017-05-28T08:38:49.203Z,6.74
2017-05-28T08:41:17.455Z,6.48
2017-05-28T08:43:45.721Z,6.36
2017-05-28T08:46:13.987Z,6.68
2017-05-28T08:48:42.240Z,6.80
2017-05-28T08:51:10.523Z,6.64
2017-05-28T08:53:38.776Z,6.78
2017-05-28T08:56:08.175Z,6.66
2017-05-28T08:58:36.431Z,6.62
2017-05-28T09:01:03.927Z,6.28
2017-05-28T09:03:33.134Z,5.38
2017-05-28T09:06:01.415Z,4.78
2017-05-28T09:08:29.674Z,6.40
2017-05-28T09:10:57.155Z,5.40
2017-05-28T09:13:25.434Z,6.18
2017-05-28T09:15:53.696Z,6.20
2017-05-28T09:18:21.966Z,6.00
2017-05-28T09:20:50.222Z,6.72
2017-05-28T09:23:18.495Z,6.08
2017-05-28T09:25:46.743Z,6.50
2017-05-28T09:28:15.011Z,6.52
2017-05-28T09:30:43.262Z,6.80
2017-05-28T09:33:11.567Z,6.92
2017-05-28T09:35:39.818Z,6.46
2017-05-28T09:38:08.066Z,6.50
2017-05-28T09:40:36.339Z,6.12
2017-05-28T09:43:04.366Z,6.58
2017-05-28T09:45:31.870Z,6.32
2017-05-28T09:48:00.119Z,6.10
2017-05-28T09:50:28.387Z,6.30
2017-05-28T09:52:56.638Z,5.36
2017-05-28T09:55:24.143Z,6.56
2017-05-28T09:57:52.400Z,5.88
2017-05-28T10:00:19.886Z,6.36
2017-05-28T10:02:48.190Z,7.08
2017-05-28T10:05:16.459Z,5.66
2017-05-28T10:07:44.719Z,6.22
2017-05-28T10:10:12.971Z,7.02
2017-05-28T10:12:41.240Z,6.04
2017-05-28T10:15:09.513Z,6.68
2017-05-28T10:17:37.782Z,6.46
2017-05-28T10:20:06.060Z,7.96
2017-05-28T10:22:34.332Z,6.82
2017-05-28T10:25:02.593Z,6.28
2017-05-28T10:27:30.847Z,6.32
2017-05-28T10:29:59.131Z,5.80
2017-05-28T10:32:27.406Z,6.60
2017-05-28T10:34:55.683Z,6.16
2017-05-28T10:37:23.934Z,6.06
2017-05-28T10:39:52.207Z,6.46
2017-05-28T10:42:20.471Z,5.94
2017-05-28T10:44:48.755Z,6.46
2017-05-28T10:47:17.007Z,6.06
2017-05-28T10:49:45.283Z,5.66
2017-05-28T10:52:13.564Z,4.98
2017-05-28T10:54:41.815Z,5.74
2017-05-28T10:57:10.086Z,5.22
2017-05-28T10:59:38.365Z,5.28
2017-05-28T11:02:06.641Z,5.14
2017-05-28T11:04:34.887Z,5.44
2017-05-28T11:07:03.163Z,4.94
2017-05-28T11:09:31.423Z,5.20
2017-05-28T11:11:59.691Z,5.04
2017-05-28T11:14:27.951Z,5.26
2017-05-28T11:16:56.248Z,4.60
2017-05-28T11:19:24.491Z,5.28
2017-05-28T11:21:55.147Z,5.26
2017-05-28T11:24:23.421Z,4.74
2017-05-28T11:26:51.687Z,4.64
2017-05-28T11:29:19.964Z,4.68
2017-05-28T11:31:48.226Z,4.32
2017-05-28T11:34:16.504Z,4.74
2017-05-28T11:36:44.755Z,4.94
2017-05-28T11:39:13.015Z,3.70
2017-05-28T11:41:41.267Z,3.54
2017-05-28T11:44:09.559Z,4.24
2017-05-28T11:46:37.843Z,4.32
2017-05-28T11:49:06.102Z,3.96
2017-05-28T11:51:34.823Z,3.90
2017-05-28T11:54:03.108Z,4.62
2017-05-28T11:56:31.376Z,3.96
2017-05-28T11:58:59.635Z,4.30
2017-05-28T12:01:27.900Z,3.94
2017-05-28T12:03:56.160Z,4.14
2017-05-28T12:06:24.436Z,3.96
2017-05-28T12:08:52.698Z,4.04
2017-05-28T12:11:20.979Z,3.80
2017-05-28T12:13:49.235Z,4.12
2017-05-28T12:16:17.491Z,3.74
2017-05-28T12:18:45.768Z,3.46
2017-05-28T12:21:14.016Z,4.80
2017-05-28T12:23:42.315Z,3.62
2017-05-28T12:26:10.569Z,3.66
2017-05-28T12:28:38.072Z,3.52
2017-05-28T12:31:06.331Z,3.64
2017-05-28T12:33:34.596Z,3.92
2017-05-28T12:36:02.843Z,3.80
2017-05-28T12:38:30.342Z,3.76
2017-05-28T12:40:57.835Z,3.12
2017-05-28T12:43:26.096Z,3.96
2017-05-28T12:45:54.375Z,3.32
2017-05-28T12:48:22.646Z,3.44
2017-05-28T12:50:50.930Z,3.84
2017-05-28T12:53:19.199Z,4.18
2017-05-28T12:55:47.471Z,3.68
2017-05-28T12:58:15.719Z,3.62
2017-05-28T13:00:43.991Z,3.80
2017-05-28T13:03:12.239Z,4.06
2017-05-28T13:05:40.972Z,3.82
2017-05-28T13:08:09.228Z,4.00
2017-05-28T13:10:37.478Z,4.16
2017-05-28T13:13:05.766Z,4.12
2017-05-28T13:15:34.019Z,4.30
2017-05-28T13:18:02.307Z,4.02
2017-05-28T13:20:30.554Z,4.02
2017-05-28T13:22:58.820Z,3.28
2017-05-28T13:25:27.221Z,4.58
2017-05-28T13:27:55.497Z,4.04
2017-05-28T13:30:23.757Z,4.08
2017-05-28T13:32:52.483Z,4.52
2017-05-28T13:35:20.736Z,3.48
2017-05-28T13:37:48.991Z,4.02
2017-05-28T13:40:17.259Z,4.02
2017-05-28T13:42:45.516Z,3.60
2017-05-28T13:45:13.802Z,4.08
2017-05-28T13:47:42.055Z,4.34
2017-05-28T13:50:10.325Z,4.60
2017-05-28T13:52:38.587Z,4.14
2017-05-28T13:55:06.852Z,3.76
2017-05-28T13:57:35.100Z,4.78
2017-05-28T14:00:03.377Z,4.00
2017-05-28T14:02:31.635Z,12.12
2017-05-28T14:04:59.885Z,4.68
2017-05-28T14:07:28.163Z,5.64
2017-05-28T14:09:56.414Z,4.50
2017-05-28T14:12:24.684Z,4.18
2017-05-28T14:14:52.954Z,4.40
2017-05-28T14:17:21.229Z,4.60
2017-05-28T14:19:49.499Z,4.24
2017-05-28T14:22:17.774Z,4.24
2017-05-28T14:24:46.030Z,4.24
2017-05-28T14:27:14.311Z,4.70
2017-05-28T14:29:42.567Z,4.04
2017-05-28T14:32:10.840Z,4.04
2017-05-28T14:34:39.098Z,4.62
2017-05-28T14:37:07.351Z,4.22
2017-05-28T14:39:35.619Z,4.10
2017-05-28T14:42:03.867Z,4.50
2017-05-28T14:44:32.152Z,4.18
2017-05-28T14:47:00.411Z,5.68
2017-05-28T14:49:28.682Z,4.86
2017-05-28T14:51:56.968Z,3.72
2017-05-28T14:54:25.247Z,4.20
2017-05-28T14:56:53.521Z,4.66
2017-05-28T14:59:21.813Z,4.36
2017-05-28T15:01:50.072Z,4.62
2017-05-28T15:04:18.323Z,5.54
2017-05-28T15:06:46.597Z,4.60
2017-05-28T15:09:14.852Z,4.10
2017-05-28T15:11:43.118Z,4.24
2017-05-28T15:14:11.363Z,4.60
2017-05-28T15:16:39.652Z,4.20
2017-05-28T15:19:07.904Z,4.48
2017-05-28T15:21:36.181Z,4.24
2017-05-28T15:24:04.439Z,4.10
2017-05-28T15:26:32.731Z,4.38
2017-05-28T15:29:00.982Z,4.54
2017-05-28T15:31:29.234Z,4.80
2017-05-28T15:33:57.498Z,4.66
2017-05-28T15:36:25.759Z,4.12
2017-05-28T15:38:54.033Z,4.60
2017-05-28T15:41:22.279Z,5.02
2017-05-28T15:43:50.555Z,5.02
2017-05-28T15:46:18.813Z,4.16
2017-05-28T15:48:47.092Z,4.30
2017-05-28T15:51:15.351Z,4.60
2017-05-28T15:53:43.635Z,4.72
2017-05-28T15:56:11.887Z,4.72
2017-05-28T15:58:40.146Z,5.12
2017-05-28T16:01:08.422Z,4.80
2017-05-28T16:03:36.675Z,4.44
2017-05-28T16:06:04.182Z,4.58
2017-05-28T16:08:32.443Z,4.30
2017-05-28T16:11:00.717Z,4.90
2017-05-28T16:13:28.976Z,4.32
2017-05-28T16:15:57.262Z,4.58
2017-05-28T16:18:25.519Z,4.90
2017-05-28T16:20:53.819Z,6.20
2017-05-28T16:23:22.088Z,4.82
2017-05-28T16:25:50.359Z,5.04
2017-05-28T16:28:18.636Z,4.60
2017-05-28T16:30:47.084Z,4.82
2017-05-28T16:33:15.587Z,5.66
2017-05-28T16:35:44.078Z,5.80
2017-05-28T16:38:14.146Z,6.06
2017-05-28T16:40:42.625Z,4.80
2017-05-28T16:43:10.387Z,6.20
2017-05-28T16:45:38.786Z,5.42
2017-05-28T16:48:07.399Z,4.90
2017-05-28T16:50:35.890Z,5.26
2017-05-28T16:53:04.323Z,5.08
2017-05-28T16:55:32.586Z,5.34
2017-05-28T16:58:00.847Z,4.74
2017-05-28T17:00:29.406Z,5.60
2017-05-28T17:02:57.674Z,4.06
2017-05-28T17:05:25.946Z,4.24
2017-05-28T17:07:54.207Z,5.16
2017-05-28T17:10:22.859Z,5.80
2017-05-28T17:12:50.639Z,5.54
2017-05-28T17:15:19.139Z,5.22
2017-05-28T17:17:47.635Z,5.10
2017-05-28T17:34:39.821Z,5.00
2017-05-28T17:37:08.294Z,5.18
2017-05-28T17:39:36.707Z,5.14
2017-05-28T17:42:04.981Z,5.18
2017-05-28T17:44:32.680Z,5.48
2017-05-28T17:47:01.147Z,6.28
2017-05-28T17:49:28.751Z,6.32
2017-05-28T17:51:57.243Z,5.60
2017-05-28T17:54:25.818Z,5.78
2017-05-28T17:56:53.609Z,5.96
2017-05-28T17:59:22.011Z,5.90
2017-05-28T18:01:50.497Z,7.62
2017-05-28T18:04:18.203Z,5.42
2017-05-28T18:06:45.871Z,6.66
2017-05-28T18:09:13.559Z,8.24
2017-05-28T18:11:42.039Z,6.10
2017-05-28T18:14:10.451Z,8.46
2017-05-28T18:16:38.946Z,7.60
2017-05-28T18:19:07.339Z,6.78
2017-05-28T18:21:36.792Z,7.38
2017-05-28T18:24:05.276Z,8.72
2017-05-28T18:26:33.942Z,6.62
2017-05-28T18:29:02.390Z,6.92
2017-05-28T18:45:55.033Z,6.96
2017-05-28T18:48:24.142Z,7.36
2017-05-28T18:50:51.731Z,7.52
2017-05-28T18:53:20.230Z,8.46
2017-05-28T18:55:48.627Z,7.98
2017-05-28T18:58:17.131Z,6.42
2017-05-28T19:00:45.630Z,8.56
2017-05-28T19:03:14.115Z,7.80
2017-05-28T19:05:42.612Z,7.80
2017-05-28T19:08:11.107Z,7.46
2017-05-28T19:10:39.617Z,6.08
2017-05-28T19:13:08.118Z,8.74
2017-05-28T19:15:36.522Z,6.34
2017-05-28T19:18:05.015Z,6.28
2017-05-28T19:20:33.424Z,6.24
2017-05-28T19:23:01.895Z,5.44
2017-05-28T19:25:30.712Z,6.42
2017-05-28T19:27:59.208Z,6.88
2017-05-28T19:30:27.719Z,6.04
2017-05-28T19:32:55.498Z,5.40
2017-05-28T19:35:23.894Z,5.80
2017-05-28T19:37:52.399Z,5.34
2017-05-28T19:40:21.011Z,5.52
2017-05-28T19:42:49.495Z,4.98
2017-05-28T19:45:18.102Z,4.54
2017-05-28T19:47:46.684Z,4.58
2017-05-28T19:50:14.979Z,3.40
2017-05-28T19:52:42.673Z,3.66
2017-05-28T19:55:11.167Z,2.86
2017-05-28T19:57:39.683Z,2.68
2017-05-28T20:00:08.271Z,2.28
2017-05-28T20:02:36.798Z,3.02
2017-05-28T20:05:05.076Z,2.60
2017-05-28T20:07:33.388Z,2.70
2017-05-28T20:10:01.631Z,2.06
2017-05-28T20:12:29.919Z,2.06
2017-05-28T20:14:58.199Z,2.12
2017-05-28T20:17:26.446Z,2.78
2017-05-28T20:19:54.716Z,2.42
2017-05-28T20:22:22.975Z,2.36
2017-05-28T20:24:50.479Z,2.60
2017-05-28T20:27:18.744Z,3.34
2017-05-28T20:29:47.024Z,4.54
2017-05-28T20:32:15.283Z,3.30
2017-05-28T20:34:43.571Z,3.60
2017-05-28T20:37:11.827Z,3.14
2017-05-28T20:39:40.105Z,3.08
2017-05-28T20:42:08.365Z,3.68
2017-05-28T20:44:36.624Z,3.42
2017-05-28T20:47:04.883Z,3.66
2017-05-28T20:49:33.168Z,3.22
2017-05-28T20:52:01.444Z,4.00
2017-05-28T20:54:29.695Z,3.40
2017-05-28T20:56:58.041Z,4.86
2017-05-28T20:59:26.299Z,4.52
2017-05-28T21:01:54.570Z,3.36
2017-05-28T21:04:22.159Z,4.12
2017-05-28T21:06:50.554Z,3.80
2017-05-28T21:09:19.062Z,3.64
2017-05-28T21:11:46.858Z,3.62
2017-05-28T21:14:15.238Z,4.00
2017-05-28T21:16:43.760Z,3.74
2017-05-28T21:19:12.236Z,4.32
2017-05-28T21:21:40.753Z,4.38
2017-05-28T21:24:09.231Z,10.20
2017-05-28T21:26:37.935Z,5.30
2017-05-28T21:29:05.523Z,4.28
2017-05-28T21:31:34.031Z,3.92
2017-05-28T21:34:02.631Z,4.58
2017-05-28T21:36:31.133Z,4.46
2017-05-28T21:38:59.605Z,5.04
2017-05-28T21:41:27.868Z,4.38
2017-05-28T21:43:56.152Z,3.54
2017-05-28T21:46:24.403Z,4.08
2017-05-28T21:48:52.873Z,4.40
2017-05-28T21:51:21.187Z,4.62
2017-05-28T21:53:49.582Z,5.52
2017-05-28T21:56:18.087Z,4.20
2017-05-28T21:58:46.478Z,4.66
2017-05-28T22:01:14.866Z,4.78
2017-05-28T22:03:43.255Z,4.60
2017-05-28T22:06:11.666Z,4.32
2017-05-28T22:08:40.169Z,4.48
2017-05-28T22:11:08.547Z,5.38
2017-05-28T22:13:36.847Z,4.84
2017-05-28T22:16:05.264Z,4.20
2017-05-28T22:18:33.643Z,4.48
2017-05-28T22:21:02.123Z,4.44
2017-05-28T22:23:30.422Z,4.64
2017-05-28T22:25:58.823Z,4.52
2017-05-28T22:28:26.411Z,4.80
2017-05-28T22:30:54.805Z,4.68
2017-05-28T22:33:23.205Z,5.64
2017-05-28T22:35:51.602Z,5.24
2017-05-28T22:38:19.983Z,5.34
2017-05-28T22:40:48.379Z,4.54
2017-05-28T22:43:17.286Z,4.70
2017-05-28T22:45:45.597Z,5.16
2017-05-28T22:48:13.986Z,5.28
2017-05-28T22:50:42.391Z,4.62
2017-05-28T22:53:10.885Z,5.06
2017-05-28T22:55:38.563Z,6.02
2017-05-28T22:58:06.947Z,5.28
2017-05-28T23:00:34.557Z,5.78
2017-05-28T23:03:03.039Z,5.20
2017-05-28T23:05:30.704Z,4.62
2017-05-28T23:08:00.147Z,5.32
2017-05-28T23:10:28.724Z,5.14
2017-05-28T23:12:57.027Z,6.14
2017-05-28T23:15:24.715Z,5.04
2017-05-28T23:17:53.103Z,5.28
2017-05-28T23:20:21.488Z,4.40
2017-05-28T23:22:49.807Z,5.18
2017-05-28T23:25:18.191Z,4.86
2017-05-28T23:27:46.483Z,4.98
2017-05-28T23:30:14.900Z,4.98
2017-05-28T23:32:43.282Z,4.60
2017-05-28T23:35:11.587Z,4.74
2017-05-28T23:37:39.873Z,4.72
2017-05-28T23:40:08.126Z,4.68
2017-05-28T23:42:36.408Z,6.08
2017-05-28T23:45:03.900Z,6.00
2017-05-28T23:47:32.160Z,6.30
2017-05-28T23:50:00.407Z,5.60
2017-05-28T23:52:28.687Z,4.74
2017-05-28T23:54:56.945Z,6.00
2017-05-28T23:57:25.222Z,5.12
2017-05-28T23:59:53.471Z,4.76
